Řízení letového provozu České republiky
OPMET data - Ceska Republika Aktualizace: 17.10.2017 23:52:07  UTC
SIGMET / AIRMET - NIL
Warning / Vystraha - NIL
 
METAR / SPECI
METAR LKCV 172300Z 05003KT 360V070 CAVOK 11/10 Q1019 NOSIG=
METAR LKKB 172300Z 18003KT 120V240 5000 MIFG BR NSC 10/10 Q1020=
METAR LKKU NIL
METAR LKKV 172300Z 10003KT CAVOK 08/07 Q1020 RMK REG QNH 1017=
SPECI LKLN 172345Z AUTO 29001KT 4000 FEW008 07/07 Q1019=
METAR LKMT 172330Z 24007KT CAVOK 09/08 Q1020 NOSIG RMK REG QNH 1017=
METAR LKNA 172300Z 10008KT CAVOK 13/11 Q1021=
METAR LKPD 172300Z VRB01KT 9999 MIFG NSC 10/08 Q1020=
METAR LKPR 172330Z 00000KT 3000 0500SE R24/P2000N R30/0400N BCFG BR NSC 10/09 Q1019 NOSIG RMK REG QNH 1017=
METAR LKTB 172330Z 07008KT CAVOK 10/09 Q1020 NOSIG RMK REG QNH 1017=
METAR LKVO NIL
TAF
TAF LKCV 171700Z 1718/1818 12002KT CAVOK      TEMPO 1802/1807 4000 MIFG BR NSC      PROB30 1803/1806 0500 FG VV002      BECMG 1805/1807 9999 BKN020      BECMG 1812/1814 VRB02KT=
TAF LKKB 171700Z 1718/1818 06004KT CAVOK      BECMG 1801/1803 2000 BR SCT008      PROB30 TEMPO 1802/1806 0800 FG BKN004      BECMG 1806/1808 07005KT 6000 BKN030      TEMPO 1812/1818 9999 SCT040=
TAF LKKU NIL
TAF LKKV 172300Z 1800/1906 VRB02KT 3000 BR NSC      TEMPO 1800/1808 1100 BR SCT003      PROB30 TEMPO 1802/1808 0300 FG BKN001      BECMG 1808/1810 16004KT 5000 BR SCT017      BECMG 1810/1812 CAVOK      BECMG 1821/1900 1300 BR SCT005      TEMPO 1900/1906 0500 FG BKN002=
TAF LKLN NIL
TAF LKMT 172300Z 1800/1906 21006KT CAVOK      TEMPO 1803/1807 3500 BR NSC      BECMG 1808/1810 23010KT      BECMG 1818/1821 19004KT      TEMPO 1902/1906 2500 BR NSC=
TAF LKNA 171700Z 1718/1818 12004KT 8000 NSC      BECMG 1720/1722 3000 BR NSC      TEMPO 1802/1809 0600 FG NSC      BECMG 1808/1810 CAVOK=
TAF LKPD 171700Z 1718/1818 VRB02KT CAVOK      BECMG 1720/1723 5000 BCFG BR      TEMPO 1801/1806 1500 BR SCT005      PROB40 TEMPO 1800/1806 0400 FG VV002      BECMG 1808/1811 9999 NSW BKN035=
TAF LKPR 172300Z 1800/1906 VRB02KT 3000 BR NSC      TEMPO 1800/1808 1300 BR SCT005      PROB30 TEMPO 1800/1808 0500 FG BKN002      BECMG 1808/1810 07004KT 4000 BR BKN020      TEMPO 1811/1818 9999 SCT030      BECMG 1821/1900 2000 BR SCT007      TEMPO 1900/1906 0700 FG BKN003=
TAF LKTB 172300Z 1800/1906 09004KT 6000 NSC      BECMG 1800/1802 3000 BR SCT007      TEMPO 1802/1808 1300 BR BKN005      BECMG 1808/1810 15010KT 7000 BKN020      TEMPO 1811/1818 9999 SCT030      BECMG 1818/1821 07004KT      TEMPO 1902/1906 2500 BR BKN010=
TAF LKVO NIL